Time;durP1;ratioP1;P1;durP2;ratioP2;P2;SDS_P1;SDS_P2;PMS_P1;PMS_P2;Temp;Humidity;BMP_temperature;BMP_pressure;BME280_temperature;BME280_humidity;BME280_pressure;Samples;Min_cycle;Max_cycle;Signal;HPM_P1;HPM_P2
2022/06/17 00:00:23;;;;;;;5.27;2.30;;;;;;;23.50;42.60;102176.53;5012367;28;20412;-59
2022/06/17 00:02:51;;;;;;;3.20;2.40;;;;;;;23.49;42.36;102182.66;5012761;28;20432;-59
2022/06/17 00:05:24;;;;;;;3.78;2.28;;;;;;;23.49;42.25;102187.91;5030869;28;20385;-59
2022/06/17 00:07:49;;;;;;;3.22;2.10;;;;;;;23.48;42.58;102181.78;5044458;28;20405;-59
2022/06/17 00:10:22;;;;;;;3.63;2.30;;;;;;;23.49;41.68;102177.41;5029237;28;20393;-59
2022/06/17 00:12:48;;;;;;;4.32;2.50;;;;;;;23.50;42.73;102184.44;5029026;28;20400;-57
2022/06/17 00:15:13;;;;;;;4.32;2.40;;;;;;;23.46;42.63;102182.59;5028369;28;20394;-59
2022/06/17 00:17:42;;;;;;;3.63;2.13;;;;;;;23.51;42.48;102183.56;5043196;28;20890;-58
2022/06/17 00:20:13;;;;;;;4.15;2.35;;;;;;;23.50;42.79;102168.66;5029735;28;20393;-59
2022/06/17 00:22:41;;;;;;;5.35;2.40;;;;;;;23.38;42.64;102147.38;5012245;28;20935;-59
2022/06/17 00:25:19;;;;;;;4.60;2.23;;;;;;;23.51;42.53;102170.44;5025024;28;20903;-58
2022/06/17 00:27:45;;;;;;;5.63;2.40;;;;;;;23.51;42.40;102186.19;5005540;28;20405;-59
2022/06/17 00:30:32;;;;;;;3.43;2.50;;;;;;;23.48;42.12;102175.63;5031062;28;20800;-59
2022/06/17 00:33:00;;;;;;;5.20;2.30;;;;;;;23.50;42.51;102168.66;5027559;28;20394;-59
2022/06/17 00:35:29;;;;;;;3.63;2.47;;;;;;;23.48;42.45;102170.38;5027343;28;20751;-60
2022/06/17 00:37:55;;;;;;;3.78;2.40;;;;;;;23.40;42.80;102150.94;5012290;28;20405;-61
2022/06/17 00:40:22;;;;;;;5.30;2.30;;;;;;;23.46;42.12;102161.56;5013820;28;20393;-60
2022/06/17 00:42:51;;;;;;;3.35;2.13;;;;;;;23.49;42.82;102166.88;5045549;22;20934;-57
2022/06/17 00:45:25;;;;;;;4.90;2.78;;;;;;;23.50;40.86;102168.66;4991850;28;20415;-58
2022/06/17 00:48:13;;;;;;;3.43;2.73;;;;;;;23.54;40.13;102169.63;5006984;28;20537;-56
2022/06/17 00:50:55;;;;;;;6.13;2.90;;;;;;;23.54;39.84;102178.38;5010564;28;20375;-60
2022/06/17 00:53:24;;;;;;;4.63;2.63;;;;;;;23.55;39.61;102176.66;4987824;28;20399;-57
2022/06/17 00:56:15;;;;;;;5.30;2.70;;;;;;;23.57;40.18;102181.06;5009199;28;20498;-57
2022/06/17 00:59:23;;;;;;;5.22;2.45;;;;;;;23.47;40.67;102179.13;4985299;28;20809;-58
2022/06/17 01:02:04;;;;;;;5.10;2.70;;;;;;;23.44;41.62;102184.31;4924692;29;20410;-58
2022/06/17 01:04:35;;;;;;;3.42;2.40;;;;;;;23.42;41.75;102178.13;4912269;29;20402;-58
2022/06/17 01:07:07;;;;;;;4.38;2.40;;;;;;;23.42;41.34;102170.25;4968413;28;20502;-56
2022/06/17 01:12:20;;;;;;;5.40;2.70;;;;;;;23.44;41.33;102185.22;5003031;28;20422;-60
2022/06/17 01:14:46;;;;;;;3.67;2.30;;;;;;;23.40;41.60;102171.97;5005682;28;20391;-58
2022/06/17 01:17:18;;;;;;;4.07;2.40;;;;;;;23.45;41.56;102191.34;5003960;28;20902;-58
2022/06/17 01:19:52;;;;;;;3.85;2.50;;;;;;;23.45;41.50;102193.97;4986794;28;20490;-58
2022/06/17 01:22:26;;;;;;;3.63;2.40;;;;;;;23.46;41.75;102195.75;5007487;28;20399;-58
2022/06/17 01:24:56;;;;;;;3.83;2.13;;;;;;;23.43;41.58;102177.28;5002111;28;20495;-57
2022/06/17 01:27:24;;;;;;;2.92;2.28;;;;;;;23.46;41.83;102190.47;5004541;28;20867;-57
2022/06/17 01:29:50;;;;;;;3.78;2.35;;;;;;;23.44;42.16;102182.59;4990935;28;20470;-58
2022/06/17 01:32:16;;;;;;;3.63;2.40;;;;;;;23.45;41.98;102186.09;5001659;28;20496;-57
2022/06/17 01:34:45;;;;;;;4.53;2.47;;;;;;;23.46;41.84;102187.84;4985696;28;20908;-57
2022/06/17 01:37:10;;;;;;;3.72;2.35;;;;;;;23.46;41.70;102187.84;4989228;28;20916;-58
2022/06/17 01:39:42;;;;;;;3.42;2.28;;;;;;;23.44;41.63;102189.56;4984107;28;20479;-57
2022/06/17 01:42:09;;;;;;;3.47;2.38;;;;;;;23.45;42.22;102201.84;5007379;28;20482;-58
2022/06/17 01:44:36;;;;;;;4.22;2.40;;;;;;;23.46;42.23;102203.63;4989237;28;20399;-57
2022/06/17 01:47:04;;;;;;;2.90;2.13;;;;;;;23.42;41.87;102196.53;5005699;28;20748;-59
2022/06/17 01:49:35;;;;;;;4.70;2.75;;;;;;;23.38;41.86;102192.06;5003860;28;20415;-58
2022/06/17 01:52:24;;;;;;;3.90;2.30;;;;;;;23.45;42.26;102212.38;4988061;28;20891;-55
2022/06/17 01:55:05;;;;;;;3.28;2.30;;;;;;;23.45;41.95;102196.59;4982396;28;20409;-59
2022/06/17 01:57:35;;;;;;;3.50;2.60;;;;;;;23.46;42.52;102194.00;5003901;28;20410;-57
2022/06/17 02:00:11;;;;;;;3.05;2.25;;;;;;;23.46;42.54;102206.25;5003446;28;20407;-57
2022/06/17 02:02:38;;;;;;;3.50;2.50;;;;;;;23.46;42.16;102198.38;4988833;28;20424;-58
2022/06/17 02:05:06;;;;;;;3.42;2.40;;;;;;;23.45;42.16;102208.00;5006028;28;20935;-58
2022/06/17 02:07:36;;;;;;;4.03;2.30;;;;;;;23.45;41.86;102201.84;5009596;28;20760;-56
2022/06/17 02:10:02;;;;;;;4.93;2.50;;;;;;;23.47;42.09;102208.03;5006532;28;20899;-53
2022/06/17 02:12:30;;;;;;;4.50;2.70;;;;;;;23.47;42.01;102210.66;5002287;28;20387;-58
2022/06/17 02:14:56;;;;;;;3.80;2.40;;;;;;;23.48;42.64;102208.09;4990341;28;20511;-58
2022/06/17 02:17:25;;;;;;;4.20;2.70;;;;;;;23.48;42.25;102199.28;4995387;28;20923;-58
2022/06/17 02:19:51;;;;;;;4.85;2.28;;;;;;;23.48;42.18;102209.81;4988573;28;20805;-60
2022/06/17 02:22:23;;;;;;;4.40;2.40;;;;;;;23.48;42.53;102212.44;5005911;28;20395;-58
2022/06/17 02:24:56;;;;;;;4.83;2.30;;;;;;;23.48;42.53;102213.34;4992070;28;20402;-56
2022/06/17 02:27:22;;;;;;;6.40;2.65;;;;;;;23.46;42.00;102209.78;4989271;28;20891;-60
2022/06/17 02:29:49;;;;;;;2.85;2.10;;;;;;;23.48;41.88;102212.44;5005701;28;20403;-57
2022/06/17 02:32:18;;;;;;;3.88;2.50;;;;;;;23.48;42.68;102212.44;5007428;28;20914;-58
2022/06/17 02:34:57;;;;;;;3.90;2.42;;;;;;;23.48;42.65;102210.72;4989863;28;20398;-58
2022/06/17 02:37:24;;;;;;;4.30;2.50;;;;;;;23.46;42.38;102203.63;5007375;28;20414;-57
2022/06/17 02:39:54;;;;;;;5.43;2.70;;;;;;;23.47;42.16;102210.66;4993869;28;20934;-58
2022/06/17 02:42:30;;;;;;;4.32;2.50;;;;;;;23.48;42.28;102212.44;5005208;28;20379;-58
2022/06/17 02:44:59;;;;;;;3.75;2.33;;;;;;;23.46;42.42;102208.88;5009052;28;20407;-58
2022/06/17 02:47:28;;;;;;;3.63;2.58;;;;;;;23.46;42.16;102194.00;5006710;28;20422;-57
2022/06/17 02:49:56;;;;;;;4.03;2.30;;;;;;;23.46;42.23;102193.13;5007865;28;20395;-58
2022/06/17 02:52:34;;;;;;;3.20;2.50;;;;;;;23.43;42.40;102185.16;5008818;28;20394;-58
2022/06/17 02:55:25;;;;;;;6.68;2.58;;;;;;;23.46;42.47;102198.38;5005845;28;20391;-58
2022/06/17 02:57:52;;;;;;;3.38;2.35;;;;;;;23.45;42.16;102188.72;5007370;28;20403;-55
2022/06/17 03:00:20;;;;;;;3.55;2.40;;;;;;;23.43;42.46;102182.53;5004171;28;20747;-57
2022/06/17 03:02:51;;;;;;;3.97;2.70;;;;;;;23.46;40.76;102183.50;4989465;28;20456;-57
2022/06/17 03:05:24;;;;;;;3.40;2.43;;;;;;;23.45;41.29;102186.09;4993939;28;20422;-57
2022/06/17 03:07:50;;;;;;;3.83;2.40;;;;;;;23.45;42.25;102186.09;5006968;28;20399;-58
2022/06/17 03:10:19;;;;;;;3.00;2.20;;;;;;;23.44;41.87;102184.31;4989386;28;20393;-57
2022/06/17 03:12:49;;;;;;;3.63;2.47;;;;;;;23.45;41.77;102186.09;4991905;28;20891;-56
2022/06/17 03:15:17;;;;;;;3.90;2.53;;;;;;;23.46;42.28;102193.13;5007956;28;20402;-57
2022/06/17 03:17:43;;;;;;;4.30;2.50;;;;;;;23.41;42.29;102189.50;5001787;28;20905;-58
2022/06/17 03:20:16;;;;;;;3.92;2.50;;;;;;;23.47;42.43;102197.50;5005160;28;20760;-58
2022/06/17 03:22:45;;;;;;;4.78;2.45;;;;;;;23.47;42.34;102194.88;5001826;28;20868;-58
2022/06/17 03:25:19;;;;;;;7.72;3.00;;;;;;;23.45;42.47;102196.59;4991212;28;20403;-58
2022/06/17 03:27:51;;;;;;;5.82;2.60;;;;;;;23.48;42.50;102199.28;5001755;28;20470;-58
2022/06/17 03:30:25;;;;;;;5.47;2.58;;;;;;;23.46;42.10;102193.13;5007023;28;20745;-59
2022/06/17 03:33:12;;;;;;;4.70;2.40;;;;;;;23.46;42.30;102193.13;5004086;28;20747;-55
2022/06/17 03:35:39;;;;;;;4.75;2.30;;;;;;;23.47;42.58;102194.88;4985655;28;20482;-59
2022/06/17 03:38:18;;;;;;;3.58;2.30;;;;;;;23.46;42.02;102198.38;4989868;28;20446;-59
2022/06/17 03:40:47;;;;;;;6.07;2.70;;;;;;;23.45;42.61;102193.97;5011803;28;20493;-58
2022/06/17 03:43:17;;;;;;;4.10;2.40;;;;;;;23.44;41.99;102187.84;5010341;28;20407;-58
2022/06/17 03:45:49;;;;;;;3.35;2.40;;;;;;;23.44;42.30;102189.56;4993826;28;20395;-58
2022/06/17 03:48:39;;;;;;;5.30;2.45;;;;;;;23.45;42.10;102201.84;5011486;28;20402;-58
2022/06/17 03:51:13;;;;;;;4.18;2.28;;;;;;;23.44;42.63;102200.09;5003811;28;20394;-58
2022/06/17 03:53:40;;;;;;;4.28;2.38;;;;;;;23.45;42.14;102208.00;4993413;28;20402;-59
2022/06/17 03:56:18;;;;;;;3.55;2.30;;;;;;;23.45;41.73;102197.50;5010510;28;20406;-58
2022/06/17 03:58:48;;;;;;;5.63;2.95;;;;;;;23.45;42.31;102201.84;5010423;28;20426;-58
2022/06/17 04:01:22;;;;;;;3.00;2.10;;;;;;;23.46;42.62;102198.38;5010302;28;20465;-59
2022/06/17 04:03:58;;;;;;;3.30;2.20;;;;;;;23.40;42.22;102179.84;5010841;28;20868;-58
2022/06/17 04:06:31;;;;;;;3.30;2.15;;;;;;;23.46;41.89;102198.38;5010187;28;20394;-59
2022/06/17 04:08:59;;;;;;;3.40;2.30;;;;;;;23.44;42.19;102194.81;5007958;28;20406;-58
2022/06/17 04:11:30;;;;;;;3.30;2.20;;;;;;;23.46;42.25;102194.00;5010378;28;20422;-57
2022/06/17 04:13:59;;;;;;;4.75;2.80;;;;;;;23.48;42.46;102192.31;5010360;28;20756;-58
2022/06/17 04:16:38;;;;;;;2.63;2.28;;;;;;;23.48;41.85;102192.31;4994651;28;20744;-58
2022/06/17 04:19:13;;;;;;;3.55;2.40;;;;;;;23.43;42.36;102179.91;4993348;28;20443;-57
2022/06/17 04:21:38;;;;;;;3.65;2.10;;;;;;;23.48;41.91;102186.16;5009077;28;20739;-58
2022/06/17 04:24:06;;;;;;;3.40;2.40;;;;;;;23.47;42.13;102187.00;5011209;28;20387;-59
2022/06/17 04:26:33;;;;;;;3.20;2.20;;;;;;;23.48;41.90;102186.16;5010835;28;20406;-58
2022/06/17 04:29:02;;;;;;;3.93;2.50;;;;;;;23.46;42.37;102182.59;5011112;28;20395;-58
2022/06/17 04:31:32;;;;;;;3.55;2.35;;;;;;;23.46;42.37;102187.84;4993816;28;20383;-58
2022/06/17 04:34:04;;;;;;;4.18;2.53;;;;;;;23.48;41.76;102196.66;4992893;28;20745;-59
2022/06/17 04:36:39;;;;;;;3.58;2.03;;;;;;;23.48;41.78;102196.66;5010399;28;20461;-59
2022/06/17 04:39:28;;;;;;;3.35;2.33;;;;;;;23.49;42.31;102193.16;5003992;28;20401;-57
2022/06/17 04:41:56;;;;;;;4.18;2.20;;;;;;;23.48;42.05;102191.41;4992683;28;20453;-59
2022/06/17 04:44:25;;;;;;;4.53;2.40;;;;;;;23.48;42.36;102186.16;4994029;28;20825;-59
2022/06/17 04:47:06;;;;;;;4.13;2.83;;;;;;;23.49;42.03;102198.44;5006432;28;20403;-58
2022/06/17 04:49:34;;;;;;;3.45;2.22;;;;;;;23.48;42.10;102192.31;4993075;28;20489;-59
2022/06/17 04:52:04;;;;;;;3.10;2.10;;;;;;;23.47;42.25;102184.38;4993609;28;20430;-58
2022/06/17 04:54:34;;;;;;;2.92;2.13;;;;;;;23.49;42.53;102195.81;5010362;28;20757;-58
2022/06/17 04:57:04;;;;;;;4.00;2.30;;;;;;;23.47;42.08;102193.16;4993245;28;20756;-57
2022/06/17 04:59:44;;;;;;;3.08;2.20;;;;;;;23.48;42.40;102192.31;4991148;28;20418;-59
2022/06/17 05:02:30;;;;;;;3.58;2.30;;;;;;;23.49;42.34;102193.16;5001175;28;20398;-58
2022/06/17 05:05:00;;;;;;;3.45;2.20;;;;;;;23.49;41.73;102201.06;5010177;28;20388;-57
2022/06/17 05:07:26;;;;;;;4.07;2.38;;;;;;;23.48;41.90;102186.16;5009618;28;20398;-58
2022/06/17 05:10:00;;;;;;;3.85;2.47;;;;;;;23.49;42.34;102198.44;5009509;28;20406;-58
2022/06/17 05:12:28;;;;;;;3.30;2.22;;;;;;;23.49;42.10;102203.69;4994031;28;20527;-58
2022/06/17 05:15:01;;;;;;;2.75;2.20;;;;;;;23.49;42.27;102198.44;5011125;28;20395;-58
2022/06/17 05:17:26;;;;;;;3.85;2.42;;;;;;;23.49;41.62;102201.06;5008515;28;20494;-58
2022/06/17 05:19:54;;;;;;;3.83;2.33;;;;;;;23.49;41.63;102199.34;5009898;28;20829;-59
2022/06/17 05:22:28;;;;;;;3.08;2.33;;;;;;;23.51;42.26;102217.75;5009569;28;20883;-58
2022/06/17 05:24:57;;;;;;;2.72;2.20;;;;;;;23.49;41.79;102214.22;5008310;28;20391;-58
2022/06/17 05:27:22;;;;;;;3.25;2.22;;;;;;;23.47;41.99;102211.56;4993424;28;20950;-57
2022/06/17 05:29:48;;;;;;;4.00;2.50;;;;;;;23.39;41.78;102191.22;5008307;28;20469;-58
2022/06/17 05:32:16;;;;;;;3.73;2.30;;;;;;;23.51;42.10;102223.00;5009589;28;20463;-58
2022/06/17 05:34:42;;;;;;;3.20;2.30;;;;;;;23.47;42.17;102210.66;4992037;28;20402;-58
2022/06/17 05:37:08;;;;;;;3.17;2.30;;;;;;;23.51;41.65;102223.00;4991983;28;20977;-58
2022/06/17 05:39:33;;;;;;;3.15;2.45;;;;;;;23.44;42.09;102207.97;4990447;28;20428;-58
2022/06/17 05:42:01;;;;;;;3.10;2.25;;;;;;;23.52;42.14;102224.78;5009533;28;20922;-59
2022/06/17 05:44:26;;;;;;;3.72;2.50;;;;;;;23.50;41.99;102215.97;5009672;28;20543;-58
2022/06/17 05:46:54;;;;;;;2.80;2.40;;;;;;;23.51;41.84;102217.75;5010350;28;20399;-58
2022/06/17 05:49:25;;;;;;;3.30;2.37;;;;;;;23.52;41.66;102219.53;4989503;28;20495;-58
2022/06/17 05:51:53;;;;;;;3.25;2.20;;;;;;;23.52;42.09;102219.53;4988310;28;20400;-58
2022/06/17 05:54:21;;;;;;;3.10;2.30;;;;;;;23.48;41.81;102201.91;5009312;28;20399;-58
2022/06/17 05:56:49;;;;;;;3.42;2.42;;;;;;;23.53;41.45;102220.44;5009919;28;20430;-59
2022/06/17 05:59:17;;;;;;;3.23;2.40;;;;;;;23.52;42.10;102216.91;5007849;28;20407;-58
2022/06/17 06:01:44;;;;;;;3.53;2.45;;;;;;;23.51;41.65;102223.00;4990718;28;20389;-58
2022/06/17 06:04:09;;;;;;;2.58;2.20;;;;;;;23.52;41.49;102222.16;4992817;28;20399;-59
2022/06/17 06:06:35;;;;;;;3.47;2.30;;;;;;;23.51;41.68;102217.75;4992682;28;20698;-58
2022/06/17 06:09:03;;;;;;;3.50;2.47;;;;;;;23.52;41.58;102216.91;5007716;28;20403;-58
2022/06/17 06:11:31;;;;;;;3.05;2.30;;;;;;;23.53;41.50;102217.81;4992130;28;20414;-58
2022/06/17 06:14:03;;;;;;;4.70;2.40;;;;;;;23.51;42.34;102217.75;4992445;28;20418;-58
2022/06/17 06:16:34;;;;;;;3.13;2.30;;;;;;;23.52;41.71;102221.28;5008871;28;20457;-58
2022/06/17 06:19:00;;;;;;;3.60;2.50;;;;;;;23.54;41.92;102224.84;5008577;28;20415;-58
2022/06/17 06:21:28;;;;;;;3.47;2.27;;;;;;;23.54;41.48;102223.06;5010094;28;20492;-58
2022/06/17 06:23:56;;;;;;;3.33;2.35;;;;;;;23.53;41.22;102226.56;5010271;28;20403;-57
2022/06/17 06:26:23;;;;;;;4.90;2.35;;;;;;;23.53;41.49;102228.31;4991551;28;20917;-58
2022/06/17 06:28:51;;;;;;;4.28;2.22;;;;;;;23.50;41.99;102226.50;5007178;28;20480;-58
2022/06/17 06:31:30;;;;;;;4.10;2.60;;;;;;;23.53;41.92;102231.81;4992634;28;20387;-58
2022/06/17 06:33:59;;;;;;;3.67;2.47;;;;;;;23.53;41.60;102231.81;4990842;28;20398;-58
2022/06/17 06:36:25;;;;;;;3.55;2.50;;;;;;;23.53;41.70;102230.94;4991260;28;20461;-58
2022/06/17 06:38:50;;;;;;;3.50;2.60;;;;;;;23.53;41.97;102237.09;5008775;28;20403;-58
2022/06/17 06:41:17;;;;;;;3.50;2.35;;;;;;;23.54;42.25;102237.97;5008921;28;20395;-58
2022/06/17 06:43:43;;;;;;;3.10;2.22;;;;;;;23.54;41.73;102244.13;5039880;22;20431;-70
2022/06/17 06:46:14;;;;;;;3.17;2.40;;;;;;;23.54;41.75;102243.25;4976372;28;20403;-70
2022/06/17 06:48:39;;;;;;;3.07;2.20;;;;;;;23.53;41.70;102237.09;4992678;28;20403;-70
2022/06/17 06:51:08;;;;;;;2.90;2.27;;;;;;;23.44;41.40;102226.38;4980153;28;20473;-70
2022/06/17 06:53:36;;;;;;;2.58;2.28;;;;;;;23.54;42.12;102238.84;4988677;28;20406;-70
2022/06/17 06:56:05;;;;;;;3.97;2.53;;;;;;;23.52;41.59;102243.19;4976849;28;20904;-69
2022/06/17 06:58:31;;;;;;;3.90;2.30;;;;;;;23.52;42.19;102240.56;4988541;28;20401;-69
2022/06/17 07:01:02;;;;;;;3.53;2.20;;;;;;;23.53;42.03;102244.97;4993888;28;20442;-69
2022/06/17 07:03:29;;;;;;;2.97;2.13;;;;;;;23.54;41.94;102238.84;4976353;28;20398;-70
2022/06/17 07:08:26;;;;;;;4.50;2.25;;;;;;;23.42;41.90;102207.97;4868497;22;20422;-70
2022/06/17 07:10:56;;;;;;;3.97;2.30;;;;;;;23.52;41.90;102224.78;4999605;28;20389;-70
2022/06/17 07:13:25;;;;;;;3.63;2.20;;;;;;;23.52;41.73;102224.78;4999417;28;20870;-70
2022/06/17 07:15:59;;;;;;;4.07;2.40;;;;;;;23.51;41.42;102217.75;5016145;23;20417;-70
2022/06/17 07:18:31;;;;;;;5.03;2.60;;;;;;;23.43;41.75;102203.56;5007381;23;20428;-69
2022/06/17 07:28:22;;;;;;;3.73;2.30;;;;;;;23.54;41.52;102212.56;5051156;28;20427;-70
2022/06/17 07:30:54;;;;;;;2.60;2.30;;;;;;;23.54;41.64;102212.56;5035085;28;20399;-70
2022/06/17 07:33:27;;;;;;;3.30;2.25;;;;;;;23.53;41.39;102202.91;5011498;28;20402;-71
2022/06/17 07:36:01;;;;;;;2.80;1.95;;;;;;;23.54;41.57;102207.31;5032726;28;20407;-70
2022/06/17 07:41:24;;;;;;;5.00;2.30;;;;;;;23.49;41.78;102208.94;5035887;28;20457;-71
2022/06/17 07:43:53;;;;;;;3.35;2.30;;;;;;;23.52;41.45;102203.75;5030438;28;20432;-69
2022/06/17 07:46:19;;;;;;;3.92;2.42;;;;;;;23.52;41.47;102203.75;5027231;28;20876;-70
2022/06/17 07:48:44;;;;;;;4.47;2.30;;;;;;;23.47;41.82;102189.63;5050013;28;20446;-70
2022/06/17 07:51:10;;;;;;;3.10;2.10;;;;;;;23.49;41.18;102180.03;5030144;28;20397;-70
2022/06/17 07:53:41;;;;;;;3.30;2.20;;;;;;;23.52;41.41;102171.34;5029537;28;21076;-70
2022/06/17 07:56:06;;;;;;;10.88;3.80;;;;;;;23.46;41.44;102182.59;5024140;28;20910;-69
2022/06/17 07:58:32;;;;;;;8.23;3.53;;;;;;;23.36;37.95;102196.41;5026908;28;20394;-68
2022/06/17 08:00:57;;;;;;;7.83;3.87;;;;;;;23.07;37.96;102173.00;5033854;28;20868;-72
2022/06/17 08:03:23;;;;;;;9.97;3.97;;;;;;;23.17;39.06;102190.75;5013914;28;20779;-71
2022/06/17 08:06:02;;;;;;;11.07;4.70;;;;;;;23.24;39.84;102183.88;5024084;28;20427;-71
2022/06/17 08:08:29;;;;;;;23.70;6.57;;;;;;;23.30;41.28;102182.28;5051705;28;20423;-71
2022/06/17 08:10:57;;;;;;;17.23;5.95;;;;;;;23.36;41.31;102181.53;5031731;28;20965;-71
2022/06/17 08:13:23;;;;;;;21.35;7.35;;;;;;;23.40;41.06;102177.22;5012322;28;20379;-71
2022/06/17 08:15:52;;;;;;;23.17;7.50;;;;;;;23.27;41.43;102150.69;5015452;28;20400;-71
2022/06/17 08:18:17;;;;;;;19.92;5.93;;;;;;;23.43;41.21;102178.19;5018535;28;20407;-71
2022/06/17 08:20:42;;;;;;;14.85;5.75;;;;;;;23.35;40.74;102156.09;5008776;28;20394;-71
2022/06/17 08:23:08;;;;;;;16.77;5.60;;;;;;;23.44;41.00;102171.16;5034873;28;20379;-71
2022/06/17 08:25:34;;;;;;;19.23;5.73;;;;;;;23.46;41.15;102175.63;5010019;28;20381;-70
2022/06/17 08:28:03;;;;;;;16.60;5.40;;;;;;;23.46;41.47;102166.81;5032958;28;20827;-70
2022/06/17 08:30:34;;;;;;;17.20;5.57;;;;;;;23.44;41.29;102158.00;5011308;28;20866;-70
2022/06/17 08:33:00;;;;;;;16.40;5.38;;;;;;;23.48;40.40;102165.09;5016938;28;20764;-71
2022/06/17 08:35:31;;;;;;;16.07;6.30;;;;;;;23.50;40.98;102163.41;5007317;28;20460;-70
2022/06/17 08:38:11;;;;;;;17.27;5.83;;;;;;;23.48;40.79;102166.00;5031956;28;20407;-70
2022/06/17 08:40:55;;;;;;;17.23;5.60;;;;;;;23.53;40.63;102152.06;5034319;28;20388;-71
2022/06/17 08:43:48;;;;;;;16.23;5.55;;;;;;;23.54;40.48;102149.44;5051559;28;20364;-71
2022/06/17 08:46:39;;;;;;;13.60;5.05;;;;;;;23.56;41.08;102153.00;5022628;28;20376;-70
2022/06/17 08:49:33;;;;;;;12.10;4.88;;;;;;;23.56;41.21;102154.75;5030754;28;20378;-72
2022/06/17 08:52:45;;;;;;;15.10;5.35;;;;;;;23.53;40.93;102146.81;5032652;28;20410;-70
2022/06/17 08:55:13;;;;;;;11.70;5.00;;;;;;;23.57;40.48;102154.75;4963244;28;20398;-70
2022/06/17 08:57:47;;;;;;;12.88;4.53;;;;;;;23.59;40.36;102152.19;4985565;28;20459;-71
2022/06/17 09:00:17;;;;;;;9.93;4.50;;;;;;;23.60;40.22;102154.81;5020346;28;20452;-71
2022/06/17 09:03:05;;;;;;;11.73;4.65;;;;;;;23.59;40.67;102158.31;5014938;28;20399;-71
2022/06/17 09:05:43;;;;;;;11.65;4.57;;;;;;;23.61;40.47;102164.47;5025604;28;20391;-70
2022/06/17 09:08:33;;;;;;;13.80;4.50;;;;;;;23.61;40.99;102169.75;5047227;28;20742;-71
2022/06/17 09:11:26;;;;;;;12.57;4.53;;;;;;;23.59;40.85;102160.94;5049990;28;20395;-71
2022/06/17 09:14:02;;;;;;;11.23;4.07;;;;;;;23.62;40.87;102163.63;5044450;28;20391;-70
2022/06/17 09:16:55;;;;;;;11.15;4.40;;;;;;;23.62;40.59;102161.00;5018626;28;20404;-70
2022/06/17 09:19:26;;;;;;;10.82;4.57;;;;;;;23.62;40.29;102158.38;5045734;28;20376;-70
2022/06/17 09:22:00;;;;;;;11.98;4.43;;;;;;;23.62;40.56;102147.84;5016704;28;20775;-70
2022/06/17 09:24:34;;;;;;;10.07;4.18;;;;;;;23.64;40.86;102154.03;5016713;28;20403;-71
2022/06/17 09:27:05;;;;;;;11.60;4.20;;;;;;;23.63;40.94;102148.75;5031334;28;20394;-70
2022/06/17 09:29:36;;;;;;;9.47;4.33;;;;;;;23.64;40.69;102161.91;5015961;28;20407;-70
2022/06/17 09:32:06;;;;;;;8.70;4.13;;;;;;;23.57;40.98;102138.13;5032602;28;20395;-71
2022/06/17 09:35:15;;;;;;;8.63;4.07;;;;;;;23.63;40.77;102148.75;5032665;28;20431;-71
2022/06/17 09:37:50;;;;;;;8.75;3.58;;;;;;;23.66;40.75;102147.91;5001595;28;20494;-70
2022/06/17 09:40:21;;;;;;;6.97;3.58;;;;;;;23.67;40.65;102150.59;5031610;28;20872;-71
2022/06/17 09:42:56;;;;;;;9.50;4.32;;;;;;;23.69;40.75;102151.50;5025395;28;20743;-71
2022/06/17 09:45:33;;;;;;;8.40;3.55;;;;;;;23.68;40.85;102151.44;5034113;28;20372;-71
2022/06/17 09:48:17;;;;;;;8.50;3.53;;;;;;;23.64;40.93;102138.25;5033493;28;20429;-70
2022/06/17 09:51:33;;;;;;;7.30;3.45;;;;;;;23.70;41.03;102155.00;5033239;28;20395;-71
2022/06/17 09:54:24;;;;;;;7.88;3.60;;;;;;;23.58;40.66;102146.03;5023944;28;20820;-71
2022/06/17 09:56:57;;;;;;;6.97;3.60;;;;;;;23.66;40.96;102163.69;5048855;28;20469;-71
2022/06/17 09:59:41;;;;;;;7.78;3.90;;;;;;;23.69;41.11;102164.66;5032380;28;20490;-71
2022/06/17 10:02:37;;;;;;;6.95;3.97;;;;;;;23.69;40.93;102158.47;5016995;28;20474;-71
2022/06/17 10:05:34;;;;;;;7.53;3.50;;;;;;;23.69;41.01;102159.38;5014429;28;20399;-71
2022/06/17 10:08:09;;;;;;;8.32;3.83;;;;;;;23.70;41.37;102149.72;5011794;28;20410;-71
2022/06/17 10:10:43;;;;;;;8.35;3.45;;;;;;;23.71;41.59;102162.03;5015785;28;20415;-70
2022/06/17 10:13:19;;;;;;;9.18;3.60;;;;;;;23.70;41.25;102160.25;5021663;28;20464;-70
2022/06/17 10:18:50;;;;;;;9.80;4.00;;;;;;;23.70;41.19;102170.78;5035697;28;20375;-69
2022/06/17 10:21:34;;;;;;;8.07;3.25;;;;;;;23.71;41.84;102162.03;5037717;28;20381;-70
2022/06/17 10:24:22;;;;;;;7.32;4.10;;;;;;;23.71;41.25;102175.19;5032644;28;20392;-71
2022/06/17 10:27:18;;;;;;;8.35;3.60;;;;;;;23.72;41.51;102169.06;5019762;28;20433;-70
2022/06/17 10:30:11;;;;;;;7.72;3.40;;;;;;;23.68;41.67;102162.88;5049820;28;20966;-71
2022/06/17 10:32:42;;;;;;;7.50;3.30;;;;;;;23.67;41.04;102160.19;5025329;28;20382;-71
2022/06/17 10:35:14;;;;;;;9.38;4.00;;;;;;;23.69;41.63;102163.75;5029868;28;20395;-70
2022/06/17 10:37:40;;;;;;;6.40;3.20;;;;;;;23.68;41.59;102135.66;5051061;28;20400;-71
2022/06/17 10:40:08;;;;;;;6.93;3.50;;;;;;;23.71;41.46;102140.97;5028348;28;20371;-71
2022/06/17 10:42:33;;;;;;;7.00;3.20;;;;;;;23.71;40.94;102136.63;5020198;28;20749;-71
2022/06/17 10:45:01;;;;;;;9.17;3.10;;;;;;;23.73;41.15;102144.53;5036768;28;20376;-69
2022/06/17 10:48:02;;;;;;;7.18;3.65;;;;;;;23.75;41.80;102148.97;5020116;28;20517;-71
2022/06/17 10:50:29;;;;;;;9.15;3.40;;;;;;;23.75;41.59;102142.81;4983244;28;20373;-71
2022/06/17 10:53:09;;;;;;;8.60;3.30;;;;;;;23.76;40.96;102141.94;5036392;28;20392;-71
2022/06/17 10:55:48;;;;;;;7.78;3.35;;;;;;;23.76;41.31;102139.31;5007824;28;20750;-70
2022/06/17 10:58:22;;;;;;;8.33;3.63;;;;;;;23.62;41.19;102116.28;5000387;28;20424;-71
2022/06/17 11:01:02;;;;;;;5.55;2.97;;;;;;;23.76;41.44;102136.69;5016255;28;20369;-71
2022/06/17 11:03:30;;;;;;;5.47;3.05;;;;;;;23.77;41.86;102138.47;5016574;28;20389;-70
2022/06/17 11:06:02;;;;;;;6.32;3.10;;;;;;;23.76;41.44;102139.31;5016617;28;20511;-70
2022/06/17 11:09:00;;;;;;;8.40;3.20;;;;;;;23.76;40.90;102134.06;5052143;28;20802;-71
2022/06/17 11:14:20;;;;;;;5.67;3.00;;;;;;;23.75;41.48;102127.03;5033086;28;20413;-71
2022/06/17 11:16:46;;;;;;;7.30;3.30;;;;;;;23.74;41.90;102122.63;5032950;28;20476;-71
2022/06/17 11:19:15;;;;;;;8.47;3.30;;;;;;;23.72;41.36;102121.72;5032751;28;20476;-71
2022/06/17 11:21:46;;;;;;;6.23;3.23;;;;;;;23.70;41.21;102119.06;5025875;28;20872;-71
2022/06/17 11:24:27;;;;;;;5.25;2.90;;;;;;;23.72;41.57;102116.44;5023310;28;20427;-71
2022/06/17 11:27:07;;;;;;;6.72;3.00;;;;;;;23.62;41.69;102100.50;5015977;28;20412;-71
2022/06/17 11:29:45;;;;;;;6.82;2.97;;;;;;;23.70;41.03;102110.28;5016292;28;20381;-72
2022/06/17 11:32:19;;;;;;;4.15;2.72;;;;;;;23.74;41.70;102120.00;4999878;28;20393;-71
2022/06/17 11:34:50;;;;;;;5.80;3.05;;;;;;;23.71;41.37;102109.41;5032334;28;20400;-72
2022/06/17 11:37:21;;;;;;;5.55;3.58;;;;;;;23.63;41.60;102107.53;5028795;28;20485;-72
2022/06/17 11:39:47;;;;;;;4.28;2.70;;;;;;;23.72;41.79;102127.88;5035619;28;20387;-72
2022/06/17 11:42:17;;;;;;;6.80;3.20;;;;;;;23.73;41.46;102123.50;5035636;28;20381;-72
2022/06/17 11:45:04;;;;;;;5.40;3.03;;;;;;;23.73;41.14;102124.38;5018325;28;20957;-72
2022/06/17 11:47:31;;;;;;;7.07;3.80;;;;;;;23.72;41.19;102121.72;5035380;28;20416;-71
2022/06/17 11:49:59;;;;;;;6.47;3.05;;;;;;;23.72;41.26;102126.97;5018866;28;20853;-72
2022/06/17 11:52:32;;;;;;;6.22;3.10;;;;;;;23.72;41.87;102126.97;5019034;28;20388;-72
2022/06/17 11:55:00;;;;;;;6.63;3.00;;;;;;;23.73;41.34;102123.50;5053884;28;20832;-71
2022/06/17 11:57:38;;;;;;;5.07;2.88;;;;;;;23.73;41.72;102123.50;5019277;28;20776;-72
2022/06/17 12:00:21;;;;;;;6.50;2.88;;;;;;;23.74;40.82;102128.78;5035781;28;20376;-72
2022/06/17 12:03:02;;;;;;;4.18;2.78;;;;;;;23.74;40.89;102131.41;5035190;28;20375;-72
2022/06/17 12:05:30;;;;;;;5.40;2.83;;;;;;;23.72;41.48;102122.63;5034985;28;20502;-71
2022/06/17 12:08:09;;;;;;;5.03;2.75;;;;;;;23.73;41.90;102124.38;5026956;28;20378;-71
2022/06/17 12:10:49;;;;;;;4.68;3.00;;;;;;;23.74;41.42;102130.53;5018482;28;20489;-72